createdAt,value
2018-02-22T00:10:11.945Z,97.9
2018-02-22T00:20:26.241Z,97.6
2018-02-22T00:30:40.830Z,97.7
2018-02-22T00:40:56.460Z,97.1
2018-02-22T00:51:11.189Z,97.2
2018-02-22T01:01:25.949Z,97.8
2018-02-22T01:11:40.424Z,97.8
2018-02-22T01:21:54.204Z,97.6
2018-02-22T01:32:09.605Z,97.2
2018-02-22T01:42:23.860Z,97
2018-02-22T01:52:38.663Z,96.9
2018-02-22T02:02:53.830Z,96.2
2018-02-22T02:13:08.377Z,95.4
2018-02-22T02:23:22.071Z,95.3
2018-02-22T02:33:36.907Z,94.7
2018-02-22T02:43:51.600Z,95.1
2018-02-22T02:54:05.559Z,95.1
2018-02-22T03:04:19.558Z,94.5
2018-02-22T03:14:34.053Z,94.1
2018-02-22T03:24:48.624Z,93.8
2018-02-22T03:35:02.996Z,93.7
2018-02-22T03:45:18.297Z,93.3
2018-02-22T03:55:32.448Z,93.4
2018-02-22T04:05:48.088Z,93
2018-02-22T04:16:02.755Z,92.8
2018-02-22T04:26:17.504Z,92.6
2018-02-22T04:36:31.408Z,92.8
2018-02-22T04:46:45.865Z,92.2
2018-02-22T04:57:00.416Z,91.8
2018-02-22T05:07:14.069Z,92
2018-02-22T05:17:29.140Z,91.4
2018-02-22T05:27:44.455Z,91.1
2018-02-22T05:37:58.457Z,90.3
2018-02-22T05:48:12.335Z,89.9
2018-02-22T05:58:26.337Z,89.9
2018-02-22T06:08:41.223Z,89.6
2018-02-22T06:18:55.540Z,89.5
2018-02-22T06:29:09.898Z,88.9
2018-02-22T06:39:23.953Z,88.8
2018-02-22T06:49:38.822Z,88.8
2018-02-22T06:59:52.559Z,88
2018-02-22T07:10:06.450Z,88
2018-02-22T07:20:21.098Z,87.5
2018-02-22T07:30:36.413Z,87.4
2018-02-22T07:40:51.294Z,87.4
2018-02-22T07:51:04.942Z,86.8
2018-02-22T08:01:19.993Z,87.2
2018-02-22T08:11:34.748Z,87.4
2018-02-22T08:21:49.170Z,87.7
2018-02-22T08:32:02.976Z,87.5
2018-02-22T08:42:16.970Z,87.8
2018-02-22T08:52:32.348Z,88.3
2018-02-22T09:02:47.058Z,88.1
2018-02-22T09:13:01.393Z,88.6
2018-02-22T09:23:16.673Z,89.3
2018-02-22T09:33:31.392Z,89.9
2018-02-22T09:43:45.525Z,90.8
2018-02-22T09:54:00.292Z,91.4
2018-02-22T10:04:14.622Z,91.2
2018-02-22T10:14:29.429Z,91.9
2018-02-22T10:24:44.270Z,92.5
2018-02-22T10:34:59.387Z,93.7
2018-02-22T10:45:13.727Z,93.6
2018-02-22T10:55:29.240Z,94
2018-02-22T11:05:44.772Z,94
2018-02-22T11:15:59.144Z,93.8
2018-02-22T11:26:13.276Z,93.3
2018-02-22T11:36:27.512Z,93.5
2018-02-22T11:46:43.191Z,92.4
2018-02-22T11:56:57.670Z,91.9
2018-02-22T12:07:11.843Z,91.1
2018-02-22T12:17:26.216Z,90.5
2018-02-22T12:27:40.227Z,90.2
2018-02-22T12:37:54.194Z,89.4
2018-02-22T12:48:09.672Z,88.7
2018-02-22T12:58:25.351Z,87.3
2018-02-22T13:08:41.175Z,87
2018-02-22T13:18:54.856Z,87.1
2018-02-22T13:29:09.342Z,87
2018-02-22T13:39:24.523Z,87.8
2018-02-22T13:49:38.464Z,88.2
